createdAt,value
2018-08-09T00:00:55.801Z,19.24
2018-08-09T00:03:25.936Z,19.27
2018-08-09T00:05:56.106Z,19.29
2018-08-09T00:08:26.240Z,19.31
2018-08-09T00:10:56.432Z,19.31
2018-08-09T00:13:26.617Z,19.38
2018-08-09T00:15:56.774Z,19.40
2018-08-09T00:18:26.992Z,19.36
2018-08-09T00:20:57.633Z,19.45
2018-08-09T00:23:27.759Z,19.47
2018-08-09T00:25:57.913Z,19.43
2018-08-09T00:28:28.033Z,19.32
2018-08-09T00:30:58.178Z,19.19
2018-08-09T00:33:28.365Z,19.08
2018-08-09T00:35:58.613Z,18.96
2018-08-09T00:38:28.748Z,18.85
2018-08-09T00:40:58.959Z,18.69
2018-08-09T00:43:29.196Z,18.51
2018-08-09T00:45:59.459Z,18.31
2018-08-09T00:48:29.643Z,18.12
2018-08-09T00:50:59.825Z,17.98
2018-08-09T00:53:30.081Z,17.86
2018-08-09T00:56:00.260Z,17.76
2018-08-09T00:58:30.428Z,17.63
2018-08-09T01:01:00.639Z,17.47
2018-08-09T01:03:30.823Z,17.37
2018-08-09T01:06:00.957Z,17.30
2018-08-09T01:08:31.136Z,17.21
2018-08-09T01:11:01.353Z,17.08
2018-08-09T01:13:31.589Z,17.04
2018-08-09T01:16:01.745Z,17.16
2018-08-09T01:18:32.019Z,17.11
2018-08-09T01:21:02.152Z,17.08
2018-08-09T01:23:32.301Z,17.06
2018-08-09T01:26:02.429Z,17.02
2018-08-09T01:28:32.549Z,17.15
2018-08-09T01:31:02.795Z,17.18
2018-08-09T01:33:32.991Z,17.13
2018-08-09T01:36:03.142Z,17.12
2018-08-09T01:38:33.253Z,17.15
2018-08-09T01:41:03.553Z,17.19
2018-08-09T01:43:50.263Z,17.22
2018-08-09T01:46:20.422Z,17.19
2018-08-09T01:48:50.548Z,17.17
2018-08-09T01:51:20.862Z,17.09
2018-08-09T01:53:51.671Z,17.00
2018-08-09T01:56:21.883Z,16.97
2018-08-09T01:58:52.577Z,16.97
2018-08-09T02:01:22.944Z,16.99
2018-08-09T02:03:53.017Z,17.02
2018-08-09T02:06:23.211Z,17.05
2018-08-09T02:08:53.369Z,16.99
2018-08-09T02:11:23.493Z,16.90
2018-08-09T02:13:53.667Z,16.81
2018-08-09T02:16:23.804Z,16.75
2018-08-09T02:18:54.113Z,16.73
2018-08-09T02:21:24.261Z,16.73
2018-08-09T02:23:54.386Z,16.75
2018-08-09T02:26:24.558Z,16.71
2018-08-09T02:28:54.716Z,16.62
2018-08-09T02:31:24.874Z,16.56
2018-08-09T02:33:55.015Z,16.52
2018-08-09T02:36:25.204Z,16.55
2018-08-09T02:38:55.294Z,16.58
2018-08-09T02:41:25.461Z,16.51
2018-08-09T02:43:55.524Z,16.45
2018-08-09T02:46:25.673Z,16.39
2018-08-09T02:48:55.873Z,16.43
2018-08-09T02:51:26.131Z,16.60
2018-08-09T02:53:56.314Z,16.75
2018-08-09T02:56:26.494Z,16.68
2018-08-09T02:58:56.695Z,16.77
2018-08-09T03:01:26.917Z,16.83
2018-08-09T03:03:57.202Z,16.79
2018-08-09T03:06:27.334Z,16.72
2018-08-09T03:08:57.457Z,16.72
2018-08-09T03:11:27.622Z,16.88
2018-08-09T03:13:57.756Z,16.99
2018-08-09T03:16:27.947Z,17.05
2018-08-09T03:18:58.029Z,17.14
2018-08-09T03:21:28.244Z,17.14
2018-08-09T03:23:58.460Z,17.22
2018-08-09T03:26:28.677Z,17.39
2018-08-09T03:28:58.817Z,17.30
2018-08-09T03:31:29.020Z,17.15
2018-08-09T03:33:59.149Z,17.09
2018-08-09T03:36:29.339Z,17.12
2018-08-09T03:38:59.452Z,17.21
2018-08-09T03:41:29.629Z,17.31
2018-08-09T03:43:59.745Z,17.41
2018-08-09T03:46:29.918Z,17.49
2018-08-09T03:48:59.998Z,17.54
2018-08-09T03:51:30.153Z,17.56
2018-08-09T03:54:00.272Z,17.65
2018-08-09T03:56:30.414Z,17.85
2018-08-09T03:59:00.519Z,17.93
2018-08-09T04:01:30.661Z,18.02
2018-08-09T04:04:00.794Z,18.20
2018-08-09T04:06:30.912Z,18.31
2018-08-09T04:09:01.057Z,18.36
2018-08-09T04:11:31.226Z,18.46
2018-08-09T04:14:01.330Z,18.45
2018-08-09T04:16:31.484Z,18.49
2018-08-09T04:19:01.541Z,18.56
2018-08-09T04:21:31.679Z,18.57
2018-08-09T04:24:01.765Z,18.60
2018-08-09T04:26:32.009Z,18.71
2018-08-09T04:29:02.113Z,18.75
2018-08-09T04:31:32.346Z,18.76
2018-08-09T04:34:02.466Z,18.92
2018-08-09T04:36:32.587Z,19.06
2018-08-09T04:39:02.711Z,19.22
2018-08-09T04:41:32.911Z,19.05
2018-08-09T04:44:03.036Z,19.12
2018-08-09T04:46:33.168Z,19.22
2018-08-09T04:49:03.264Z,19.17
2018-08-09T04:51:33.484Z,19.33
2018-08-09T04:54:03.600Z,19.31
2018-08-09T04:56:33.684Z,19.43
2018-08-09T04:59:06.751Z,19.37
2018-08-09T05:01:36.890Z,19.40
2018-08-09T05:04:07.122Z,19.44
2018-08-09T05:06:37.244Z,19.52
2018-08-09T05:09:10.110Z,19.66
2018-08-09T05:11:40.917Z,19.59
2018-08-09T05:14:11.102Z,19.62
2018-08-09T05:16:41.351Z,19.66
2018-08-09T05:19:11.477Z,19.76
2018-08-09T05:21:41.617Z,19.88
2018-08-09T05:24:11.838Z,19.94
2018-08-09T05:26:42.033Z,20.01
2018-08-09T05:29:12.144Z,20.19
2018-08-09T05:31:42.292Z,20.40
2018-08-09T05:34:12.519Z,20.50
2018-08-09T05:36:42.631Z,20.68
2018-08-09T05:39:13.201Z,20.81
2018-08-09T05:41:43.383Z,20.89
2018-08-09T05:44:13.466Z,20.69
2018-08-09T05:46:43.663Z,20.84
2018-08-09T05:49:13.816Z,20.90
2018-08-09T05:51:44.047Z,20.88
2018-08-09T05:54:14.271Z,20.87
2018-08-09T05:56:44.431Z,20.87
2018-08-09T05:59:14.607Z,20.86
2018-08-09T06:01:44.794Z,20.63
2018-08-09T06:04:14.965Z,20.70
2018-08-09T06:06:48.125Z,20.63
2018-08-09T06:09:18.284Z,20.61
2018-08-09T06:11:48.594Z,20.78
2018-08-09T06:14:18.949Z,20.71
2018-08-09T06:16:49.128Z,20.60
2018-08-09T06:19:19.370Z,20.56
2018-08-09T06:21:49.799Z,20.70
2018-08-09T06:24:19.951Z,20.85
2018-08-09T06:26:50.164Z,21.22
2018-08-09T06:29:20.407Z,21.72
2018-08-09T06:31:50.641Z,22.07
2018-08-09T06:34:20.777Z,22.14
2018-08-09T06:36:51.004Z,21.90
2018-08-09T06:39:21.166Z,21.77
2018-08-09T06:41:51.348Z,21.58
2018-08-09T06:44:21.487Z,21.38
2018-08-09T06:46:51.705Z,21.57
2018-08-09T06:49:21.830Z,21.23
2018-08-09T06:51:52.208Z,21.30
2018-08-09T06:54:22.340Z,21.46
2018-08-09T06:56:52.555Z,21.74
2018-08-09T06:59:22.804Z,21.60
2018-08-09T07:01:53.029Z,21.55
2018-08-09T07:04:25.975Z,21.50
2018-08-09T07:06:56.128Z,21.40
2018-08-09T07:09:26.292Z,21.27
2018-08-09T07:11:56.504Z,21.27
2018-08-09T07:14:27.050Z,21.31
2018-08-09T07:16:57.372Z,21.53
2018-08-09T07:19:27.891Z,21.63
2018-08-09T07:21:59.304Z,21.64
2018-08-09T07:24:30.021Z,21.83
2018-08-09T07:27:00.510Z,22.15
2018-08-09T07:29:30.985Z,22.40
2018-08-09T07:32:01.184Z,22.33
2018-08-09T07:34:31.300Z,22.26
2018-08-09T07:37:01.594Z,22.47
2018-08-09T07:39:31.791Z,22.15
2018-08-09T07:42:01.941Z,22.26
2018-08-09T07:44:32.061Z,22.31
2018-08-09T07:47:02.327Z,22.66
2018-08-09T07:49:32.471Z,22.67
2018-08-09T07:52:02.621Z,23.62
2018-08-09T07:54:32.852Z,23.49
2018-08-09T07:57:03.095Z,23.54
2018-08-09T07:59:33.204Z,23.36
2018-08-09T08:02:03.431Z,22.98
2018-08-09T08:04:33.579Z,22.64
2018-08-09T08:07:03.902Z,22.78
2018-08-09T08:09:34.071Z,23.23
2018-08-09T08:12:04.337Z,22.98
2018-08-09T08:14:34.521Z,23.33
2018-08-09T08:17:04.672Z,23.77
2018-08-09T08:19:34.787Z,24.08
2018-08-09T08:22:05.196Z,24.56
2018-08-09T08:24:35.265Z,25.26
2018-08-09T08:27:05.538Z,25.01
2018-08-09T08:29:35.974Z,25.74
2018-08-09T08:32:06.357Z,25.91
2018-08-09T08:34:36.516Z,25.06
2018-08-09T08:37:07.201Z,25.18
2018-08-09T08:39:37.325Z,25.82
2018-08-09T08:42:07.491Z,25.88
2018-08-09T08:44:37.670Z,25.76
2018-08-09T08:47:08.006Z,26.20
2018-08-09T08:49:38.112Z,26.92
2018-08-09T08:52:08.366Z,26.82
2018-08-09T08:54:38.492Z,26.96
2018-08-09T08:57:08.692Z,27.27
2018-08-09T08:59:38.815Z,27.73
2018-08-09T09:02:09.152Z,26.08
2018-08-09T09:04:39.301Z,25.68
2018-08-09T09:07:09.479Z,24.82
2018-08-09T09:09:39.577Z,25.26
2018-08-09T09:12:09.893Z,25.02
2018-08-09T09:14:40.016Z,24.92
2018-08-09T09:17:10.147Z,24.94
2018-08-09T09:19:40.327Z,24.77
2018-08-09T09:22:10.503Z,24.58
2018-08-09T09:24:40.877Z,24.42
2018-08-09T09:29:41.032Z,24.34
2018-08-09T09:32:11.174Z,24.15
2018-08-09T09:34:41.282Z,24.51
2018-08-09T09:37:11.375Z,24.86
2018-08-09T09:39:41.464Z,24.85
2018-08-09T09:42:11.553Z,24.83
2018-08-09T09:44:41.693Z,24.55
2018-08-09T09:47:11.870Z,25.19
2018-08-09T09:49:41.968Z,25.45
2018-08-09T09:52:12.162Z,26.02
2018-08-09T09:54:42.224Z,25.75
2018-08-09T09:57:12.394Z,26.10
2018-08-09T09:59:42.537Z,26.49
2018-08-09T10:02:12.826Z,27.14
2018-08-09T10:04:42.923Z,27.16
2018-08-09T10:07:13.100Z,26.27
2018-08-09T10:09:43.135Z,26.51
2018-08-09T10:12:13.250Z,26.41
2018-08-09T10:14:43.459Z,26.51
2018-08-09T10:17:13.565Z,26.63
2018-08-09T10:19:43.760Z,27.06
2018-08-09T10:22:13.845Z,27.36
2018-08-09T10:24:43.953Z,27.02
2018-08-09T10:27:14.118Z,27.10
2018-08-09T10:29:44.184Z,27.06
2018-08-09T10:32:14.382Z,26.99
2018-08-09T10:34:44.664Z,27.48
2018-08-09T10:37:14.763Z,27.35
2018-08-09T10:39:44.917Z,27.38
2018-08-09T10:42:15.443Z,27.49
2018-08-09T10:44:45.561Z,27.89
2018-08-09T10:47:15.807Z,27.48
2018-08-09T10:49:45.877Z,28.15
2018-08-09T10:52:16.017Z,27.80
2018-08-09T10:54:46.102Z,27.49
2018-08-09T10:57:16.199Z,27.45
2018-08-09T10:59:46.382Z,27.28
2018-08-09T11:02:16.520Z,27.24
2018-08-09T11:04:47.055Z,27.13
2018-08-09T11:07:17.290Z,27.16
2018-08-09T11:09:47.375Z,27.36
2018-08-09T11:12:17.490Z,27.50
2018-08-09T11:14:47.567Z,27.80
2018-08-09T11:17:17.680Z,27.71
2018-08-09T11:19:47.746Z,28.00
2018-08-09T11:22:17.989Z,28.33
2018-08-09T11:24:48.034Z,28.28
2018-08-09T11:27:18.143Z,27.94
2018-08-09T11:29:48.208Z,27.73
2018-08-09T11:32:18.382Z,27.98
2018-08-09T11:34:48.450Z,27.85
2018-08-09T11:37:18.586Z,27.82
2018-08-09T11:39:48.730Z,28.05
2018-08-09T11:42:18.871Z,28.38
2018-08-09T11:44:48.956Z,28.36
2018-08-09T11:47:19.426Z,28.40
2018-08-09T11:49:49.590Z,28.26
2018-08-09T11:52:19.653Z,28.52
2018-08-09T11:54:49.758Z,28.66
2018-08-09T11:57:19.978Z,29.12
2018-08-09T11:59:50.077Z,29.00
2018-08-09T12:02:20.204Z,28.90
2018-08-09T12:04:50.288Z,28.56
2018-08-09T12:07:20.410Z,29.06
2018-08-09T12:09:50.527Z,29.37
2018-08-09T12:12:20.752Z,29.24
2018-08-09T12:14:51.049Z,28.76
2018-08-09T12:17:21.176Z,29.28
2018-08-09T12:19:51.337Z,29.11
2018-08-09T12:22:21.517Z,28.70
2018-08-09T12:24:51.712Z,28.98
2018-08-09T12:27:22.013Z,29.51
2018-08-09T12:29:52.173Z,29.45
2018-08-09T12:32:22.389Z,29.20
2018-08-09T12:34:52.576Z,29.03
2018-08-09T12:37:22.781Z,28.96
2018-08-09T12:39:53.028Z,28.77
2018-08-09T12:42:23.325Z,28.60
2018-08-09T12:44:53.605Z,28.60
2018-08-09T12:47:23.821Z,28.63
2018-08-09T12:49:53.953Z,28.64
2018-08-09T12:52:24.121Z,28.61
2018-08-09T12:54:54.288Z,28.61
2018-08-09T12:57:24.497Z,28.44
2018-08-09T12:59:54.654Z,28.31
2018-08-09T13:02:24.890Z,28.50
2018-08-09T13:04:55.114Z,28.37
2018-08-09T13:07:25.353Z,28.38
2018-08-09T13:09:55.592Z,28.45
2018-08-09T13:12:25.700Z,28.46
2018-08-09T13:14:55.818Z,28.51
2018-08-09T13:17:26.034Z,28.27
2018-08-09T13:19:56.390Z,27.58
2018-08-09T13:22:26.557Z,26.94
2018-08-09T13:24:56.816Z,26.81
2018-08-09T13:27:27.032Z,26.96
2018-08-09T13:29:57.313Z,27.10
2018-08-09T13:32:27.512Z,27.17
2018-08-09T13:34:57.653Z,27.39
2018-08-09T13:37:27.824Z,27.65
2018-08-09T13:39:57.947Z,27.75
2018-08-09T13:42:28.126Z,27.78
2018-08-09T13:44:58.330Z,27.80
2018-08-09T13:47:28.531Z,27.89
2018-08-09T13:49:58.737Z,28.13
2018-08-09T13:52:28.911Z,28.28
2018-08-09T13:54:58.988Z,28.33
2018-08-09T13:57:29.303Z,28.36
2018-08-09T13:59:59.500Z,28.25
2018-08-09T14:02:30.225Z,28.24
2018-08-09T14:05:00.416Z,28.20
2018-08-09T14:07:30.813Z,28.01
2018-08-09T14:10:01.090Z,27.78
2018-08-09T14:12:31.359Z,27.65
2018-08-09T14:15:01.479Z,27.67
2018-08-09T14:17:31.753Z,27.65
2018-08-09T14:20:01.924Z,27.59
2018-08-09T14:22:32.245Z,27.58
2018-08-09T14:25:02.615Z,27.42
2018-08-09T14:27:33.118Z,27.35
2018-08-09T14:30:03.483Z,27.28
2018-08-09T14:32:33.930Z,27.33
2018-08-09T14:35:04.254Z,27.49
2018-08-09T14:37:34.546Z,27.76
2018-08-09T14:40:05.933Z,27.93
2018-08-09T14:42:36.411Z,28.23
2018-08-09T14:45:10.876Z,28.24
2018-08-09T14:47:41.532Z,28.47
2018-08-09T14:50:11.779Z,28.53
2018-08-09T14:52:42.041Z,28.33
2018-08-09T14:55:13.622Z,28.49
2018-08-09T14:57:44.125Z,28.62
2018-08-09T15:00:17.747Z,28.80
2018-08-09T15:02:48.600Z,28.60
2018-08-09T15:05:18.918Z,28.36
2018-08-09T15:07:49.323Z,28.58
2018-08-09T15:10:19.694Z,28.92
2018-08-09T15:12:49.982Z,29.32
2018-08-09T15:15:20.388Z,29.55
2018-08-09T15:17:50.597Z,29.68
2018-08-09T15:20:20.880Z,29.24
2018-08-09T15:22:51.113Z,28.58
2018-08-09T15:25:21.323Z,27.67
2018-08-09T15:27:51.482Z,27.49
2018-08-09T15:30:21.794Z,27.18
2018-08-09T15:32:52.124Z,27.32
2018-08-09T15:35:22.447Z,27.77
2018-08-09T15:37:52.654Z,28.18
2018-08-09T15:40:22.778Z,28.13
2018-08-09T15:42:53.145Z,28.24
2018-08-09T15:45:23.327Z,28.22
2018-08-09T15:47:53.665Z,27.89
2018-08-09T15:50:23.998Z,27.83
2018-08-09T15:52:54.212Z,27.93
2018-08-09T15:55:24.442Z,28.15
2018-08-09T15:57:54.666Z,28.17
2018-08-09T16:00:25.323Z,28.27
2018-08-09T16:02:55.647Z,28.22
2018-08-09T16:05:25.815Z,27.62
2018-08-09T16:07:56.148Z,27.42
2018-08-09T16:10:26.287Z,27.16
2018-08-09T16:12:56.412Z,27.09
2018-08-09T16:15:26.514Z,26.95
2018-08-09T16:17:56.714Z,26.89
2018-08-09T16:20:26.868Z,26.79
2018-08-09T16:22:57.269Z,26.74
2018-08-09T16:25:27.466Z,26.78
2018-08-09T16:27:57.755Z,26.88
2018-08-09T16:30:27.884Z,26.64
2018-08-09T16:32:58.316Z,26.62
2018-08-09T16:35:28.541Z,26.51
2018-08-09T16:37:58.815Z,26.55
2018-08-09T16:40:28.919Z,26.36
2018-08-09T16:42:59.171Z,26.26
2018-08-09T16:45:29.369Z,26.17
2018-08-09T16:47:59.646Z,26.01
2018-08-09T16:50:29.779Z,25.99
2018-08-09T16:52:59.935Z,25.89
2018-08-09T16:55:30.191Z,25.75
2018-08-09T16:58:00.509Z,25.84
2018-08-09T17:00:30.737Z,25.90
2018-08-09T17:03:01.020Z,25.95
2018-08-09T17:05:31.163Z,25.90
2018-08-09T17:08:01.499Z,25.85
2018-08-09T17:10:31.791Z,25.89
2018-08-09T17:13:02.088Z,25.84
2018-08-09T17:15:32.368Z,25.83
2018-08-09T17:18:02.516Z,25.74
2018-08-09T17:20:33.842Z,25.81
2018-08-09T17:23:05.520Z,25.93
2018-08-09T17:25:35.996Z,25.90
2018-08-09T17:28:06.361Z,25.82
2018-08-09T17:30:36.562Z,25.67
2018-08-09T17:33:07.002Z,25.51
2018-08-09T17:35:37.189Z,25.39
2018-08-09T17:38:07.511Z,25.30
2018-08-09T17:40:37.773Z,25.22
2018-08-09T17:43:07.991Z,25.30
2018-08-09T17:45:38.121Z,25.32
2018-08-09T17:48:08.499Z,25.33
2018-08-09T17:50:38.742Z,25.30
2018-08-09T17:53:10.278Z,25.20
2018-08-09T17:55:40.478Z,25.26
2018-08-09T17:58:10.823Z,25.30
2018-08-09T18:00:40.890Z,25.29
2018-08-09T18:03:11.089Z,25.28
2018-08-09T18:05:41.267Z,24.41
2018-08-09T18:08:11.512Z,23.09
2018-08-09T18:10:41.691Z,22.32
2018-08-09T18:13:11.919Z,21.69
2018-08-09T18:15:42.007Z,21.40
2018-08-09T18:18:12.100Z,21.35
2018-08-09T18:20:42.225Z,21.13
2018-08-09T18:23:12.511Z,21.10
2018-08-09T18:25:42.625Z,20.99
2018-08-09T18:28:12.837Z,21.12
2018-08-09T18:30:43.122Z,21.05
2018-08-09T18:33:13.236Z,21.00
2018-08-09T18:35:43.430Z,21.01
2018-08-09T18:38:13.576Z,21.01
2018-08-09T18:40:43.828Z,21.04
2018-08-09T18:43:14.148Z,21.06
2018-08-09T18:45:44.458Z,20.99
2018-08-09T18:48:14.683Z,21.03
2018-08-09T18:50:44.996Z,20.89
2018-08-09T18:53:15.199Z,20.82
2018-08-09T18:55:45.323Z,20.78
2018-08-09T18:58:15.570Z,20.79
2018-08-09T19:00:45.732Z,20.80
2018-08-09T19:03:15.932Z,20.83
2018-08-09T19:05:46.051Z,20.74
2018-08-09T19:08:16.255Z,20.76
2018-08-09T19:10:46.459Z,20.77
2018-08-09T19:13:16.722Z,20.85
2018-08-09T19:15:46.905Z,20.87
2018-08-09T19:18:16.978Z,20.88
2018-08-09T19:20:47.205Z,20.85
2018-08-09T19:23:17.471Z,20.82
2018-08-09T19:25:47.655Z,20.79
2018-08-09T19:28:17.960Z,20.87
2018-08-09T19:30:48.049Z,20.88
2018-08-09T19:33:18.358Z,20.81
2018-08-09T19:35:48.573Z,20.88
2018-08-09T19:38:18.895Z,20.82
2018-08-09T19:40:49.271Z,20.77
2018-08-09T19:43:19.466Z,20.78
2018-08-09T19:45:49.600Z,20.91
2018-08-09T19:50:48.795Z,20.91
2018-08-09T19:53:18.978Z,20.93
2018-08-09T19:55:49.108Z,20.92
2018-08-09T19:58:19.278Z,20.90
2018-08-09T20:00:49.574Z,20.66
2018-08-09T20:03:19.848Z,20.60
2018-08-09T20:05:49.994Z,20.46
2018-08-09T20:08:20.147Z,20.36
2018-08-09T20:10:50.423Z,20.28
2018-08-09T20:13:20.616Z,20.31
2018-08-09T20:15:50.791Z,20.26
2018-08-09T20:18:21.060Z,20.27
2018-08-09T20:20:51.280Z,20.19
2018-08-09T20:23:21.465Z,20.18
2018-08-09T20:25:51.591Z,20.23
2018-08-09T20:28:21.858Z,20.24
2018-08-09T20:30:52.060Z,20.42
2018-08-09T20:33:22.347Z,20.40
2018-08-09T20:35:52.570Z,20.34
2018-08-09T20:38:22.678Z,20.26
2018-08-09T20:40:52.858Z,20.18
2018-08-09T20:43:22.940Z,20.08
2018-08-09T20:45:53.032Z,20.01
2018-08-09T20:48:23.181Z,19.94
2018-08-09T20:50:53.400Z,19.91
2018-08-09T20:53:23.591Z,19.83
2018-08-09T20:55:53.743Z,19.76
2018-08-09T20:58:23.934Z,19.67
2018-08-09T21:00:54.108Z,19.62
2018-08-09T21:03:24.227Z,19.62
2018-08-09T21:05:54.318Z,19.62
2018-08-09T21:08:24.417Z,19.59
2018-08-09T21:10:54.487Z,19.61
2018-08-09T21:13:24.671Z,19.67
2018-08-09T21:15:54.875Z,19.68
2018-08-09T21:18:25.176Z,19.62
2018-08-09T21:20:55.395Z,19.64
2018-08-09T21:23:25.506Z,19.57
2018-08-09T21:25:55.632Z,19.55
2018-08-09T21:28:25.723Z,19.42
2018-08-09T21:30:55.882Z,19.30
2018-08-09T21:33:26.060Z,19.21
2018-08-09T21:35:56.195Z,19.17
2018-08-09T21:38:26.325Z,19.04
2018-08-09T21:40:56.459Z,18.98
2018-08-09T21:43:26.567Z,18.93
2018-08-09T21:45:56.832Z,18.87
2018-08-09T21:48:26.893Z,18.92
2018-08-09T21:50:56.982Z,18.92
2018-08-09T21:53:27.169Z,18.84
2018-08-09T21:55:57.885Z,18.75
2018-08-09T21:58:28.010Z,18.70
2018-08-09T22:01:03.729Z,18.70
2018-08-09T22:03:35.905Z,18.64
2018-08-09T22:06:11.368Z,18.60
2018-08-09T22:08:46.475Z,18.56
2018-08-09T22:11:21.702Z,18.53
2018-08-09T22:13:57.145Z,18.50
2018-08-09T22:16:32.368Z,18.63
2018-08-09T22:19:07.468Z,18.50
2018-08-09T22:21:42.743Z,18.44
2018-08-09T22:24:12.856Z,18.38
2018-08-09T22:26:43.100Z,18.33
2018-08-09T22:29:13.363Z,18.31
2018-08-09T22:31:43.435Z,18.30
2018-08-09T22:34:13.654Z,18.34
2018-08-09T22:36:43.847Z,18.19
2018-08-09T22:39:13.999Z,18.18
2018-08-09T22:41:44.124Z,18.10
2018-08-09T22:44:41.979Z,17.98
2018-08-09T22:47:12.095Z,17.86
2018-08-09T22:49:42.302Z,17.66
2018-08-09T22:52:12.399Z,17.57
2018-08-09T22:54:42.596Z,17.57
2018-08-09T22:57:12.863Z,17.55
2018-08-09T22:59:43.098Z,17.57
2018-08-09T23:02:13.288Z,17.56
2018-08-09T23:04:43.493Z,17.52
2018-08-09T23:07:13.650Z,17.37
2018-08-09T23:09:43.789Z,17.09
2018-08-09T23:12:13.999Z,17.01
2018-08-09T23:14:44.263Z,16.93
2018-08-09T23:17:14.456Z,16.92
2018-08-09T23:19:45.256Z,16.76
2018-08-09T23:22:19.745Z,16.68
2018-08-09T23:24:49.890Z,16.78
2018-08-09T23:27:20.060Z,16.77
2018-08-09T23:29:50.325Z,16.83
2018-08-09T23:32:20.549Z,16.82
2018-08-09T23:34:50.726Z,16.82
2018-08-09T23:37:20.884Z,16.82
2018-08-09T23:39:51.002Z,16.82
2018-08-09T23:42:21.154Z,16.78
2018-08-09T23:44:51.276Z,16.88
2018-08-09T23:47:21.448Z,16.86
2018-08-09T23:49:51.606Z,16.84
2018-08-09T23:52:21.758Z,16.79
2018-08-09T23:54:51.949Z,16.79
2018-08-09T23:57:22.223Z,16.92
2018-08-09T23:59:52.565Z,16.90
